sensor_id;sensor_type;location;lat;lon;timestamp;P1;durP1;ratioP1;P2;durP2;ratioP2
51384;SDS011;37478;55.682;37.462;2023-03-23T00:01:16;4.22;;;2.88;;
51384;SDS011;37478;55.682;37.462;2023-03-23T00:03:45;5.75;;;2.75;;
51384;SDS011;37478;55.682;37.462;2023-03-23T00:06:11;4.80;;;3.03;;
51384;SDS011;37478;55.682;37.462;2023-03-23T00:08:41;5.20;;;3.33;;
51384;SDS011;37478;55.682;37.462;2023-03-23T00:11:10;6.15;;;3.20;;
51384;SDS011;37478;55.682;37.462;2023-03-23T00:13:35;5.00;;;2.92;;
51384;SDS011;37478;55.682;37.462;2023-03-23T00:16:01;4.53;;;2.92;;
51384;SDS011;37478;55.682;37.462;2023-03-23T00:18:27;4.32;;;2.67;;
51384;SDS011;37478;55.682;37.462;2023-03-23T00:20:53;4.38;;;3.00;;
51384;SDS011;37478;55.682;37.462;2023-03-23T00:23:19;4.05;;;2.45;;
51384;SDS011;37478;55.682;37.462;2023-03-23T00:25:48;5.65;;;2.97;;
51384;SDS011;37478;55.682;37.462;2023-03-23T00:28:14;4.22;;;2.67;;
51384;SDS011;37478;55.682;37.462;2023-03-23T00:30:40;3.95;;;2.88;;
51384;SDS011;37478;55.682;37.462;2023-03-23T00:33:07;5.60;;;3.53;;
51384;SDS011;37478;55.682;37.462;2023-03-23T00:35:32;5.05;;;3.25;;
51384;SDS011;37478;55.682;37.462;2023-03-23T00:37:57;4.65;;;3.42;;
51384;SDS011;37478;55.682;37.462;2023-03-23T00:40:23;3.92;;;3.03;;
51384;SDS011;37478;55.682;37.462;2023-03-23T00:42:49;6.28;;;3.22;;
51384;SDS011;37478;55.682;37.462;2023-03-23T00:45:14;5.00;;;2.90;;
51384;SDS011;37478;55.682;37.462;2023-03-23T00:47:40;5.22;;;2.90;;
51384;SDS011;37478;55.682;37.462;2023-03-23T00:50:06;5.63;;;2.65;;
51384;SDS011;37478;55.682;37.462;2023-03-23T00:52:32;4.20;;;2.72;;
51384;SDS011;37478;55.682;37.462;2023-03-23T00:54:58;5.10;;;3.00;;
51384;SDS011;37478;55.682;37.462;2023-03-23T00:57:23;4.75;;;2.97;;
51384;SDS011;37478;55.682;37.462;2023-03-23T00:59:50;4.53;;;3.30;;
51384;SDS011;37478;55.682;37.462;2023-03-23T01:02:15;6.18;;;3.33;;
51384;SDS011;37478;55.682;37.462;2023-03-23T01:04:41;4.15;;;2.97;;
51384;SDS011;37478;55.682;37.462;2023-03-23T01:07:09;4.65;;;2.80;;
51384;SDS011;37478;55.682;37.462;2023-03-23T01:09:37;4.38;;;3.15;;
51384;SDS011;37478;55.682;37.462;2023-03-23T01:12:05;6.53;;;3.10;;
51384;SDS011;37478;55.682;37.462;2023-03-23T01:14:31;4.18;;;2.90;;
51384;SDS011;37478;55.682;37.462;2023-03-23T01:16:56;4.60;;;3.00;;
51384;SDS011;37478;55.682;37.462;2023-03-23T01:19:22;3.90;;;2.78;;
51384;SDS011;37478;55.682;37.462;2023-03-23T01:21:47;5.35;;;2.78;;
51384;SDS011;37478;55.682;37.462;2023-03-23T01:24:12;4.80;;;2.97;;
51384;SDS011;37478;55.682;37.462;2023-03-23T01:26:38;4.50;;;3.22;;
51384;SDS011;37478;55.682;37.462;2023-03-23T01:29:03;6.38;;;3.50;;
51384;SDS011;37478;55.682;37.462;2023-03-23T01:31:29;5.78;;;3.10;;
51384;SDS011;37478;55.682;37.462;2023-03-23T01:33:54;4.68;;;2.88;;
51384;SDS011;37478;55.682;37.462;2023-03-23T01:36:21;4.22;;;2.55;;
51384;SDS011;37478;55.682;37.462;2023-03-23T01:38:48;3.40;;;2.70;;
51384;SDS011;37478;55.682;37.462;2023-03-23T01:41:14;5.35;;;3.33;;
51384;SDS011;37478;55.682;37.462;2023-03-23T01:46:27;3.83;;;2.50;;
51384;SDS011;37478;55.682;37.462;2023-03-23T01:48:53;5.32;;;3.25;;
51384;SDS011;37478;55.682;37.462;2023-03-23T01:51:18;5.60;;;2.60;;
51384;SDS011;37478;55.682;37.462;2023-03-23T01:53:46;3.35;;;2.42;;
51384;SDS011;37478;55.682;37.462;2023-03-23T01:56:12;3.60;;;2.45;;
51384;SDS011;37478;55.682;37.462;2023-03-23T01:58:39;6.40;;;2.78;;
51384;SDS011;37478;55.682;37.462;2023-03-23T02:01:06;4.05;;;2.25;;
51384;SDS011;37478;55.682;37.462;2023-03-23T02:03:32;4.13;;;2.80;;
51384;SDS011;37478;55.682;37.462;2023-03-23T02:05:59;3.92;;;2.75;;
51384;SDS011;37478;55.682;37.462;2023-03-23T02:08:26;6.55;;;2.90;;
51384;SDS011;37478;55.682;37.462;2023-03-23T02:10:53;7.22;;;3.17;;
51384;SDS011;37478;55.682;37.462;2023-03-23T02:13:18;5.13;;;2.80;;
51384;SDS011;37478;55.682;37.462;2023-03-23T02:16:03;3.25;;;2.13;;
51384;SDS011;37478;55.682;37.462;2023-03-23T02:18:31;6.35;;;3.65;;
51384;SDS011;37478;55.682;37.462;2023-03-23T02:21:37;3.85;;;2.67;;
51384;SDS011;37478;55.682;37.462;2023-03-23T02:36:36;4.78;;;3.17;;
51384;SDS011;37478;55.682;37.462;2023-03-23T02:39:09;6.15;;;3.22;;
51384;SDS011;37478;55.682;37.462;2023-03-23T02:41:47;8.98;;;3.55;;
51384;SDS011;37478;55.682;37.462;2023-03-23T02:44:14;4.63;;;2.97;;
51384;SDS011;37478;55.682;37.462;2023-03-23T02:46:40;4.85;;;3.05;;
51384;SDS011;37478;55.682;37.462;2023-03-23T02:49:06;6.70;;;3.50;;
51384;SDS011;37478;55.682;37.462;2023-03-23T02:51:33;4.15;;;3.00;;
51384;SDS011;37478;55.682;37.462;2023-03-23T02:53:59;5.65;;;3.45;;
51384;SDS011;37478;55.682;37.462;2023-03-23T02:56:25;6.47;;;3.53;;
51384;SDS011;37478;55.682;37.462;2023-03-23T02:58:53;4.80;;;2.92;;
51384;SDS011;37478;55.682;37.462;2023-03-23T03:04:10;7.75;;;2.65;;
51384;SDS011;37478;55.682;37.462;2023-03-23T03:11:34;6.75;;;3.65;;
51384;SDS011;37478;55.682;37.462;2023-03-23T03:14:07;5.45;;;3.47;;
51384;SDS011;37478;55.682;37.462;2023-03-23T03:16:38;5.45;;;3.30;;
51384;SDS011;37478;55.682;37.462;2023-03-23T03:19:14;4.38;;;3.20;;
51384;SDS011;37478;55.682;37.462;2023-03-23T03:21:42;6.20;;;3.60;;
51384;SDS011;37478;55.682;37.462;2023-03-23T03:24:08;5.78;;;3.30;;
51384;SDS011;37478;55.682;37.462;2023-03-23T03:26:36;8.77;;;3.58;;
51384;SDS011;37478;55.682;37.462;2023-03-23T03:29:02;6.72;;;3.40;;
51384;SDS011;37478;55.682;37.462;2023-03-23T03:31:32;5.25;;;3.58;;
51384;SDS011;37478;55.682;37.462;2023-03-23T03:33:58;5.25;;;2.90;;
51384;SDS011;37478;55.682;37.462;2023-03-23T03:36:27;5.28;;;3.25;;
51384;SDS011;37478;55.682;37.462;2023-03-23T03:38:59;5.10;;;3.20;;
51384;SDS011;37478;55.682;37.462;2023-03-23T03:41:25;5.28;;;3.10;;
51384;SDS011;37478;55.682;37.462;2023-03-23T03:43:51;8.40;;;3.25;;
51384;SDS011;37478;55.682;37.462;2023-03-23T03:46:16;7.60;;;3.30;;
51384;SDS011;37478;55.682;37.462;2023-03-23T03:48:41;5.05;;;2.95;;
51384;SDS011;37478;55.682;37.462;2023-03-23T03:51:07;9.07;;;3.92;;
51384;SDS011;37478;55.682;37.462;2023-03-23T03:53:33;6.82;;;3.78;;
51384;SDS011;37478;55.682;37.462;2023-03-23T03:55:58;5.28;;;3.47;;
51384;SDS011;37478;55.682;37.462;2023-03-23T03:58:25;8.68;;;4.40;;
51384;SDS011;37478;55.682;37.462;2023-03-23T04:00:56;8.85;;;3.90;;
51384;SDS011;37478;55.682;37.462;2023-03-23T04:03:22;8.15;;;4.38;;
51384;SDS011;37478;55.682;37.462;2023-03-23T04:05:47;7.20;;;3.92;;
51384;SDS011;37478;55.682;37.462;2023-03-23T04:08:12;5.88;;;3.63;;
51384;SDS011;37478;55.682;37.462;2023-03-23T04:10:38;8.40;;;3.85;;
51384;SDS011;37478;55.682;37.462;2023-03-23T04:13:04;5.60;;;3.85;;
51384;SDS011;37478;55.682;37.462;2023-03-23T04:15:29;12.25;;;5.82;;
51384;SDS011;37478;55.682;37.462;2023-03-23T04:17:55;6.85;;;4.03;;
51384;SDS011;37478;55.682;37.462;2023-03-23T04:20:21;7.22;;;4.03;;
51384;SDS011;37478;55.682;37.462;2023-03-23T04:22:47;8.10;;;3.92;;
51384;SDS011;37478;55.682;37.462;2023-03-23T04:25:17;6.80;;;4.78;;
51384;SDS011;37478;55.682;37.462;2023-03-23T04:27:46;7.45;;;4.72;;
51384;SDS011;37478;55.682;37.462;2023-03-23T04:30:17;10.88;;;4.60;;
51384;SDS011;37478;55.682;37.462;2023-03-23T04:32:44;12.13;;;4.63;;
51384;SDS011;37478;55.682;37.462;2023-03-23T04:35:10;10.45;;;4.80;;
51384;SDS011;37478;55.682;37.462;2023-03-23T04:37:36;9.65;;;4.85;;
51384;SDS011;37478;55.682;37.462;2023-03-23T04:40:02;9.45;;;4.78;;
51384;SDS011;37478;55.682;37.462;2023-03-23T04:42:32;10.23;;;4.75;;
51384;SDS011;37478;55.682;37.462;2023-03-23T04:44:57;18.38;;;5.32;;
51384;SDS011;37478;55.682;37.462;2023-03-23T04:47:23;13.48;;;5.03;;
51384;SDS011;37478;55.682;37.462;2023-03-23T04:49:49;10.90;;;5.38;;
51384;SDS011;37478;55.682;37.462;2023-03-23T04:52:15;7.97;;;4.90;;
51384;SDS011;37478;55.682;37.462;2023-03-23T04:54:41;9.32;;;4.70;;
51384;SDS011;37478;55.682;37.462;2023-03-23T04:57:06;11.30;;;5.70;;
51384;SDS011;37478;55.682;37.462;2023-03-23T04:59:33;11.45;;;5.55;;
51384;SDS011;37478;55.682;37.462;2023-03-23T05:01:58;10.32;;;5.18;;
51384;SDS011;37478;55.682;37.462;2023-03-23T05:04:24;9.32;;;5.13;;
51384;SDS011;37478;55.682;37.462;2023-03-23T05:06:50;9.88;;;5.65;;
51384;SDS011;37478;55.682;37.462;2023-03-23T05:09:16;11.80;;;5.75;;
51384;SDS011;37478;55.682;37.462;2023-03-23T05:11:41;8.88;;;5.00;;
51384;SDS011;37478;55.682;37.462;2023-03-23T05:14:06;11.30;;;5.50;;
51384;SDS011;37478;55.682;37.462;2023-03-23T05:16:32;10.02;;;5.40;;
51384;SDS011;37478;55.682;37.462;2023-03-23T05:18:57;11.05;;;6.03;;
51384;SDS011;37478;55.682;37.462;2023-03-23T05:21:23;11.32;;;6.72;;
51384;SDS011;37478;55.682;37.462;2023-03-23T05:23:48;13.70;;;6.03;;
51384;SDS011;37478;55.682;37.462;2023-03-23T05:26:22;11.88;;;5.72;;
51384;SDS011;37478;55.682;37.462;2023-03-23T05:28:50;11.60;;;5.43;;
51384;SDS011;37478;55.682;37.462;2023-03-23T05:31:18;9.45;;;5.00;;
51384;SDS011;37478;55.682;37.462;2023-03-23T05:33:43;10.20;;;5.28;;
51384;SDS011;37478;55.682;37.462;2023-03-23T05:36:09;16.90;;;5.60;;
51384;SDS011;37478;55.682;37.462;2023-03-23T05:38:35;9.98;;;5.55;;
51384;SDS011;37478;55.682;37.462;2023-03-23T05:41:01;8.93;;;5.15;;
51384;SDS011;37478;55.682;37.462;2023-03-23T05:43:26;12.55;;;6.38;;
51384;SDS011;37478;55.682;37.462;2023-03-23T05:45:52;11.35;;;5.82;;
51384;SDS011;37478;55.682;37.462;2023-03-23T05:48:17;9.70;;;6.38;;
51384;SDS011;37478;55.682;37.462;2023-03-23T05:50:42;10.45;;;5.85;;
51384;SDS011;37478;55.682;37.462;2023-03-23T05:53:08;13.30;;;6.45;;
51384;SDS011;37478;55.682;37.462;2023-03-23T05:55:33;13.18;;;6.50;;
51384;SDS011;37478;55.682;37.462;2023-03-23T05:57:59;9.88;;;6.30;;
51384;SDS011;37478;55.682;37.462;2023-03-23T06:00:24;11.57;;;5.78;;
51384;SDS011;37478;55.682;37.462;2023-03-23T06:02:54;10.98;;;5.68;;
51384;SDS011;37478;55.682;37.462;2023-03-23T06:05:19;11.43;;;5.80;;
51384;SDS011;37478;55.682;37.462;2023-03-23T06:07:45;10.77;;;6.20;;
51384;SDS011;37478;55.682;37.462;2023-03-23T06:10:10;11.05;;;5.93;;
51384;SDS011;37478;55.682;37.462;2023-03-23T06:12:36;9.60;;;5.75;;
51384;SDS011;37478;55.682;37.462;2023-03-23T06:15:02;14.38;;;6.75;;
51384;SDS011;37478;55.682;37.462;2023-03-23T06:17:29;12.55;;;6.38;;
51384;SDS011;37478;55.682;37.462;2023-03-23T06:19:54;12.55;;;6.45;;
51384;SDS011;37478;55.682;37.462;2023-03-23T06:22:20;17.27;;;6.03;;
51384;SDS011;37478;55.682;37.462;2023-03-23T06:24:45;13.35;;;6.43;;
51384;SDS011;37478;55.682;37.462;2023-03-23T06:27:10;11.63;;;5.70;;
51384;SDS011;37478;55.682;37.462;2023-03-23T06:29:36;14.30;;;6.75;;
51384;SDS011;37478;55.682;37.462;2023-03-23T06:32:02;17.98;;;7.38;;
51384;SDS011;37478;55.682;37.462;2023-03-23T06:34:29;11.43;;;6.47;;
51384;SDS011;37478;55.682;37.462;2023-03-23T06:36:54;11.40;;;6.63;;
51384;SDS011;37478;55.682;37.462;2023-03-23T06:39:20;11.00;;;6.68;;
51384;SDS011;37478;55.682;37.462;2023-03-23T06:41:47;10.98;;;6.13;;
51384;SDS011;37478;55.682;37.462;2023-03-23T06:44:12;13.35;;;6.75;;
51384;SDS011;37478;55.682;37.462;2023-03-23T06:46:38;13.55;;;6.05;;
51384;SDS011;37478;55.682;37.462;2023-03-23T06:49:03;11.20;;;6.47;;
51384;SDS011;37478;55.682;37.462;2023-03-23T06:51:30;12.82;;;6.25;;
51384;SDS011;37478;55.682;37.462;2023-03-23T06:53:55;10.13;;;5.88;;
51384;SDS011;37478;55.682;37.462;2023-03-23T06:56:22;14.55;;;7.35;;
51384;SDS011;37478;55.682;37.462;2023-03-23T06:58:47;9.00;;;5.60;;
51384;SDS011;37478;55.682;37.462;2023-03-23T07:01:13;12.10;;;5.88;;
51384;SDS011;37478;55.682;37.462;2023-03-23T07:03:40;10.40;;;6.07;;
51384;SDS011;37478;55.682;37.462;2023-03-23T07:06:06;8.88;;;5.40;;
51384;SDS011;37478;55.682;37.462;2023-03-23T07:08:32;13.65;;;6.68;;
51384;SDS011;37478;55.682;37.462;2023-03-23T07:10:57;13.45;;;6.68;;
51384;SDS011;37478;55.682;37.462;2023-03-23T07:13:22;12.88;;;6.85;;
51384;SDS011;37478;55.682;37.462;2023-03-23T07:15:48;13.77;;;5.80;;
51384;SDS011;37478;55.682;37.462;2023-03-23T07:18:14;9.88;;;5.45;;
51384;SDS011;37478;55.682;37.462;2023-03-23T07:20:39;8.65;;;5.13;;
51384;SDS011;37478;55.682;37.462;2023-03-23T07:23:05;12.35;;;5.55;;
51384;SDS011;37478;55.682;37.462;2023-03-23T07:25:31;10.60;;;6.53;;
51384;SDS011;37478;55.682;37.462;2023-03-23T07:27:58;17.20;;;7.10;;
51384;SDS011;37478;55.682;37.462;2023-03-23T07:30:23;9.13;;;4.88;;
51384;SDS011;37478;55.682;37.462;2023-03-23T07:32:48;9.98;;;5.75;;
51384;SDS011;37478;55.682;37.462;2023-03-23T07:35:13;14.30;;;6.13;;
51384;SDS011;37478;55.682;37.462;2023-03-23T07:37:39;9.80;;;6.07;;
51384;SDS011;37478;55.682;37.462;2023-03-23T07:40:04;9.48;;;6.55;;
51384;SDS011;37478;55.682;37.462;2023-03-23T07:42:39;7.45;;;4.32;;
51384;SDS011;37478;55.682;37.462;2023-03-23T07:45:05;10.65;;;5.00;;
51384;SDS011;37478;55.682;37.462;2023-03-23T07:47:30;10.43;;;4.97;;
51384;SDS011;37478;55.682;37.462;2023-03-23T07:49:56;10.35;;;5.60;;
51384;SDS011;37478;55.682;37.462;2023-03-23T07:52:21;12.23;;;6.50;;
51384;SDS011;37478;55.682;37.462;2023-03-23T07:54:47;10.75;;;5.25;;
51384;SDS011;37478;55.682;37.462;2023-03-23T07:57:12;15.38;;;4.75;;
51384;SDS011;37478;55.682;37.462;2023-03-23T07:59:38;9.05;;;5.53;;
51384;SDS011;37478;55.682;37.462;2023-03-23T08:02:03;6.30;;;4.38;;
51384;SDS011;37478;55.682;37.462;2023-03-23T08:04:28;10.95;;;4.82;;
51384;SDS011;37478;55.682;37.462;2023-03-23T08:06:54;8.60;;;5.20;;
51384;SDS011;37478;55.682;37.462;2023-03-23T08:09:19;7.07;;;4.30;;
51384;SDS011;37478;55.682;37.462;2023-03-23T08:11:44;9.15;;;5.57;;
51384;SDS011;37478;55.682;37.462;2023-03-23T08:14:10;9.35;;;5.20;;
51384;SDS011;37478;55.682;37.462;2023-03-23T08:16:36;7.63;;;4.68;;
51384;SDS011;37478;55.682;37.462;2023-03-23T08:19:01;7.90;;;5.32;;
51384;SDS011;37478;55.682;37.462;2023-03-23T08:21:27;7.38;;;5.00;;
51384;SDS011;37478;55.682;37.462;2023-03-23T08:23:52;8.60;;;5.15;;
51384;SDS011;37478;55.682;37.462;2023-03-23T08:26:18;7.88;;;5.47;;
51384;SDS011;37478;55.682;37.462;2023-03-23T08:28:44;10.02;;;5.15;;
51384;SDS011;37478;55.682;37.462;2023-03-23T08:31:12;8.02;;;4.57;;
51384;SDS011;37478;55.682;37.462;2023-03-23T08:33:37;9.52;;;6.07;;
51384;SDS011;37478;55.682;37.462;2023-03-23T08:36:03;8.18;;;5.50;;
51384;SDS011;37478;55.682;37.462;2023-03-23T08:38:28;8.95;;;5.68;;
51384;SDS011;37478;55.682;37.462;2023-03-23T08:41:02;10.05;;;5.68;;
51384;SDS011;37478;55.682;37.462;2023-03-23T08:43:28;8.77;;;4.97;;
51384;SDS011;37478;55.682;37.462;2023-03-23T08:45:54;11.68;;;6.10;;
51384;SDS011;37478;55.682;37.462;2023-03-23T08:48:20;8.80;;;5.13;;
51384;SDS011;37478;55.682;37.462;2023-03-23T08:50:45;8.98;;;5.03;;
51384;SDS011;37478;55.682;37.462;2023-03-23T08:53:11;13.93;;;7.25;;
51384;SDS011;37478;55.682;37.462;2023-03-23T08:55:36;8.43;;;4.80;;
51384;SDS011;37478;55.682;37.462;2023-03-23T08:58:01;10.38;;;5.18;;
51384;SDS011;37478;55.682;37.462;2023-03-23T09:00:28;8.55;;;4.50;;
51384;SDS011;37478;55.682;37.462;2023-03-23T09:02:53;10.52;;;5.32;;
51384;SDS011;37478;55.682;37.462;2023-03-23T09:05:21;8.10;;;5.00;;
51384;SDS011;37478;55.682;37.462;2023-03-23T09:07:47;9.23;;;4.85;;
51384;SDS011;37478;55.682;37.462;2023-03-23T09:10:13;9.70;;;5.93;;
51384;SDS011;37478;55.682;37.462;2023-03-23T09:12:39;7.75;;;4.70;;
51384;SDS011;37478;55.682;37.462;2023-03-23T09:15:06;9.98;;;5.80;;
51384;SDS011;37478;55.682;37.462;2023-03-23T09:17:33;7.53;;;5.18;;
51384;SDS011;37478;55.682;37.462;2023-03-23T09:19:58;9.13;;;4.95;;
51384;SDS011;37478;55.682;37.462;2023-03-23T09:22:24;10.80;;;5.38;;
51384;SDS011;37478;55.682;37.462;2023-03-23T09:24:49;9.63;;;5.25;;
51384;SDS011;37478;55.682;37.462;2023-03-23T09:27:16;12.18;;;5.60;;
51384;SDS011;37478;55.682;37.462;2023-03-23T09:29:41;7.20;;;4.43;;
51384;SDS011;37478;55.682;37.462;2023-03-23T09:32:09;8.43;;;5.30;;
51384;SDS011;37478;55.682;37.462;2023-03-23T09:34:34;6.68;;;4.90;;
51384;SDS011;37478;55.682;37.462;2023-03-23T09:37:01;10.20;;;5.38;;
51384;SDS011;37478;55.682;37.462;2023-03-23T09:39:29;6.57;;;4.57;;
51384;SDS011;37478;55.682;37.462;2023-03-23T09:47:34;7.60;;;4.43;;
51384;SDS011;37478;55.682;37.462;2023-03-23T09:50:04;7.97;;;4.70;;
51384;SDS011;37478;55.682;37.462;2023-03-23T09:55:01;9.07;;;4.82;;
51384;SDS011;37478;55.682;37.462;2023-03-23T09:57:28;7.38;;;4.45;;
51384;SDS011;37478;55.682;37.462;2023-03-23T10:02:46;8.38;;;5.25;;
51384;SDS011;37478;55.682;37.462;2023-03-23T10:05:18;6.25;;;4.18;;
51384;SDS011;37478;55.682;37.462;2023-03-23T10:07:45;6.47;;;4.60;;
51384;SDS011;37478;55.682;37.462;2023-03-23T10:10:12;7.40;;;4.13;;
51384;SDS011;37478;55.682;37.462;2023-03-23T10:17:52;7.82;;;4.22;;
51384;SDS011;37478;55.682;37.462;2023-03-23T10:20:21;5.68;;;3.85;;
51384;SDS011;37478;55.682;37.462;2023-03-23T10:23:09;7.10;;;3.83;;
51384;SDS011;37478;55.682;37.462;2023-03-23T10:25:36;5.85;;;4.03;;
51384;SDS011;37478;55.682;37.462;2023-03-23T10:28:16;8.77;;;4.60;;
51384;SDS011;37478;55.682;37.462;2023-03-23T10:30:44;7.53;;;4.25;;
51384;SDS011;37478;55.682;37.462;2023-03-23T10:35:55;6.97;;;3.95;;
51384;SDS011;37478;55.682;37.462;2023-03-23T10:38:26;8.05;;;4.57;;
51384;SDS011;37478;55.682;37.462;2023-03-23T10:41:06;7.05;;;4.57;;
51384;SDS011;37478;55.682;37.462;2023-03-23T10:43:34;6.07;;;4.25;;
51384;SDS011;37478;55.682;37.462;2023-03-23T10:46:02;5.15;;;4.07;;
51384;SDS011;37478;55.682;37.462;2023-03-23T10:48:30;7.30;;;3.88;;
51384;SDS011;37478;55.682;37.462;2023-03-23T10:50:57;7.72;;;4.47;;
51384;SDS011;37478;55.682;37.462;2023-03-23T10:55:49;6.20;;;3.85;;
51384;SDS011;37478;55.682;37.462;2023-03-23T10:58:25;7.38;;;4.00;;
51384;SDS011;37478;55.682;37.462;2023-03-23T11:00:53;8.18;;;3.85;;
51384;SDS011;37478;55.682;37.462;2023-03-23T11:03:24;7.20;;;4.18;;
51384;SDS011;37478;55.682;37.462;2023-03-23T11:05:52;8.80;;;4.07;;
51384;SDS011;37478;55.682;37.462;2023-03-23T11:08:19;5.03;;;3.58;;
51384;SDS011;37478;55.682;37.462;2023-03-23T11:10:49;10.07;;;4.95;;
51384;SDS011;37478;55.682;37.462;2023-03-23T11:13:16;6.20;;;4.18;;
51384;SDS011;37478;55.682;37.462;2023-03-23T11:15:43;5.90;;;4.20;;
51384;SDS011;37478;55.682;37.462;2023-03-23T11:18:18;7.28;;;4.20;;
51384;SDS011;37478;55.682;37.462;2023-03-23T11:20:44;7.13;;;4.00;;
51384;SDS011;37478;55.682;37.462;2023-03-23T11:23:19;6.65;;;3.90;;
51384;SDS011;37478;55.682;37.462;2023-03-23T11:26:08;7.75;;;4.32;;
51384;SDS011;37478;55.682;37.462;2023-03-23T11:28:34;7.38;;;3.58;;
51384;SDS011;37478;55.682;37.462;2023-03-23T11:31:01;9.70;;;4.32;;
51384;SDS011;37478;55.682;37.462;2023-03-23T11:33:35;5.95;;;3.63;;
51384;SDS011;37478;55.682;37.462;2023-03-23T11:36:02;6.53;;;3.55;;
51384;SDS011;37478;55.682;37.462;2023-03-23T11:38:27;7.85;;;4.20;;
51384;SDS011;37478;55.682;37.462;2023-03-23T11:40:53;5.72;;;4.03;;
51384;SDS011;37478;55.682;37.462;2023-03-23T11:43:23;6.30;;;4.03;;
51384;SDS011;37478;55.682;37.462;2023-03-23T11:46:01;6.68;;;4.32;;
51384;SDS011;37478;55.682;37.462;2023-03-23T11:48:35;6.78;;;3.58;;
51384;SDS011;37478;55.682;37.462;2023-03-23T11:53:49;6.63;;;3.92;;
51384;SDS011;37478;55.682;37.462;2023-03-23T11:58:45;8.10;;;4.28;;
51384;SDS011;37478;55.682;37.462;2023-03-23T12:03:51;6.28;;;3.83;;
51384;SDS011;37478;55.682;37.462;2023-03-23T12:06:31;7.15;;;3.83;;
51384;SDS011;37478;55.682;37.462;2023-03-23T12:44:55;9.07;;;3.78;;
51384;SDS011;37478;55.682;37.462;2023-03-23T12:50:16;7.55;;;4.30;;
51384;SDS011;37478;55.682;37.462;2023-03-23T12:55:15;8.60;;;3.70;;
51384;SDS011;37478;55.682;37.462;2023-03-23T13:08:14;5.70;;;3.85;;
51384;SDS011;37478;55.682;37.462;2023-03-23T13:10:45;6.20;;;3.30;;
51384;SDS011;37478;55.682;37.462;2023-03-23T13:13:13;7.38;;;3.75;;
51384;SDS011;37478;55.682;37.462;2023-03-23T13:16:14;10.07;;;4.55;;
51384;SDS011;37478;55.682;37.462;2023-03-23T13:18:41;4.82;;;3.45;;
51384;SDS011;37478;55.682;37.462;2023-03-23T13:23:39;5.03;;;3.58;;
51384;SDS011;37478;55.682;37.462;2023-03-23T13:26:06;4.88;;;3.50;;
51384;SDS011;37478;55.682;37.462;2023-03-23T13:31:13;6.03;;;3.80;;
51384;SDS011;37478;55.682;37.462;2023-03-23T13:33:44;6.07;;;3.90;;
51384;SDS011;37478;55.682;37.462;2023-03-23T13:36:12;7.25;;;4.13;;
51384;SDS011;37478;55.682;37.462;2023-03-23T13:38:38;8.70;;;3.90;;
51384;SDS011;37478;55.682;37.462;2023-03-23T13:41:10;7.32;;;3.83;;
51384;SDS011;37478;55.682;37.462;2023-03-23T13:43:37;8.82;;;3.88;;
51384;SDS011;37478;55.682;37.462;2023-03-23T13:46:10;4.00;;;3.17;;
51384;SDS011;37478;55.682;37.462;2023-03-23T13:48:43;6.45;;;3.40;;
51384;SDS011;37478;55.682;37.462;2023-03-23T13:51:23;4.93;;;3.30;;
51384;SDS011;37478;55.682;37.462;2023-03-23T13:53:49;5.68;;;3.55;;
51384;SDS011;37478;55.682;37.462;2023-03-23T13:56:36;6.60;;;3.53;;
51384;SDS011;37478;55.682;37.462;2023-03-23T13:59:46;6.07;;;3.90;;
51384;SDS011;37478;55.682;37.462;2023-03-23T14:01:50;7.57;;;3.50;;
51384;SDS011;37478;55.682;37.462;2023-03-23T14:04:16;7.28;;;3.97;;
51384;SDS011;37478;55.682;37.462;2023-03-23T14:06:42;7.43;;;3.78;;
51384;SDS011;37478;55.682;37.462;2023-03-23T14:11:58;10.57;;;3.92;;
51384;SDS011;37478;55.682;37.462;2023-03-23T14:14:26;5.70;;;3.88;;
51384;SDS011;37478;55.682;37.462;2023-03-23T14:16:52;11.38;;;3.65;;
51384;SDS011;37478;55.682;37.462;2023-03-23T14:19:25;7.60;;;3.40;;
51384;SDS011;37478;55.682;37.462;2023-03-23T14:21:55;5.32;;;3.55;;
51384;SDS011;37478;55.682;37.462;2023-03-23T14:24:33;6.38;;;3.90;;
51384;SDS011;37478;55.682;37.462;2023-03-23T14:27:11;6.82;;;4.05;;
51384;SDS011;37478;55.682;37.462;2023-03-23T14:29:37;5.63;;;3.45;;
51384;SDS011;37478;55.682;37.462;2023-03-23T14:32:02;7.38;;;3.78;;
51384;SDS011;37478;55.682;37.462;2023-03-23T14:34:31;5.88;;;3.65;;
51384;SDS011;37478;55.682;37.462;2023-03-23T14:36:57;6.20;;;4.22;;
51384;SDS011;37478;55.682;37.462;2023-03-23T14:41:49;6.15;;;4.20;;
51384;SDS011;37478;55.682;37.462;2023-03-23T14:44:17;5.82;;;3.92;;
51384;SDS011;37478;55.682;37.462;2023-03-23T14:46:44;4.70;;;3.58;;
51384;SDS011;37478;55.682;37.462;2023-03-23T14:49:12;8.43;;;4.15;;
51384;SDS011;37478;55.682;37.462;2023-03-23T14:51:45;7.88;;;3.97;;
51384;SDS011;37478;55.682;37.462;2023-03-23T14:54:11;6.90;;;4.00;;
51384;SDS011;37478;55.682;37.462;2023-03-23T14:56:36;7.95;;;3.70;;
51384;SDS011;37478;55.682;37.462;2023-03-23T14:59:03;6.07;;;3.40;;
51384;SDS011;37478;55.682;37.462;2023-03-23T15:01:29;8.38;;;4.05;;
51384;SDS011;37478;55.682;37.462;2023-03-23T15:03:57;5.97;;;3.58;;
51384;SDS011;37478;55.682;37.462;2023-03-23T15:06:25;9.13;;;4.60;;
51384;SDS011;37478;55.682;37.462;2023-03-23T15:08:52;6.45;;;3.85;;
51384;SDS011;37478;55.682;37.462;2023-03-23T15:11:27;6.95;;;4.45;;
51384;SDS011;37478;55.682;37.462;2023-03-23T15:13:55;5.18;;;3.90;;
51384;SDS011;37478;55.682;37.462;2023-03-23T15:16:24;6.47;;;3.63;;
51384;SDS011;37478;55.682;37.462;2023-03-23T15:18:51;8.00;;;4.07;;
51384;SDS011;37478;55.682;37.462;2023-03-23T15:23:50;10.35;;;3.92;;
51384;SDS011;37478;55.682;37.462;2023-03-23T15:26:24;6.32;;;3.80;;
51384;SDS011;37478;55.682;37.462;2023-03-23T15:28:50;5.20;;;3.25;;
51384;SDS011;37478;55.682;37.462;2023-03-23T15:31:15;8.15;;;4.28;;
51384;SDS011;37478;55.682;37.462;2023-03-23T15:33:41;4.55;;;3.90;;
51384;SDS011;37478;55.682;37.462;2023-03-23T15:36:14;6.22;;;3.80;;
51384;SDS011;37478;55.682;37.462;2023-03-23T15:38:42;5.10;;;3.80;;
51384;SDS011;37478;55.682;37.462;2023-03-23T15:41:21;5.82;;;3.70;;
51384;SDS011;37478;55.682;37.462;2023-03-23T15:43:53;7.53;;;3.88;;
51384;SDS011;37478;55.682;37.462;2023-03-23T15:46:23;6.07;;;4.95;;
51384;SDS011;37478;55.682;37.462;2023-03-23T15:51:14;6.95;;;3.42;;
51384;SDS011;37478;55.682;37.462;2023-03-23T15:53:40;5.50;;;3.80;;
51384;SDS011;37478;55.682;37.462;2023-03-23T15:56:07;5.00;;;3.42;;
51384;SDS011;37478;55.682;37.462;2023-03-23T15:58:33;5.65;;;3.50;;
51384;SDS011;37478;55.682;37.462;2023-03-23T16:00:59;7.35;;;3.75;;
51384;SDS011;37478;55.682;37.462;2023-03-23T16:03:28;9.15;;;4.22;;
51384;SDS011;37478;55.682;37.462;2023-03-23T16:05:54;6.90;;;4.03;;
51384;SDS011;37478;55.682;37.462;2023-03-23T16:08:21;7.28;;;4.57;;
51384;SDS011;37478;55.682;37.462;2023-03-23T16:10:47;8.02;;;5.00;;
51384;SDS011;37478;55.682;37.462;2023-03-23T16:13:12;7.07;;;4.28;;
51384;SDS011;37478;55.682;37.462;2023-03-23T16:15:39;7.30;;;4.88;;
51384;SDS011;37478;55.682;37.462;2023-03-23T16:18:04;8.60;;;4.03;;
51384;SDS011;37478;55.682;37.462;2023-03-23T16:20:30;6.75;;;4.10;;
51384;SDS011;37478;55.682;37.462;2023-03-23T16:22:57;7.78;;;4.93;;
51384;SDS011;37478;55.682;37.462;2023-03-23T16:25:22;9.77;;;4.60;;
51384;SDS011;37478;55.682;37.462;2023-03-23T16:27:48;9.25;;;5.05;;
51384;SDS011;37478;55.682;37.462;2023-03-23T16:30:22;9.20;;;4.75;;
51384;SDS011;37478;55.682;37.462;2023-03-23T16:32:48;8.25;;;4.05;;